createdAt,value
2018-09-29T00:00:28.479Z,101887.16
2018-09-29T00:02:56.453Z,101886.84
2018-09-29T00:05:24.067Z,101894.12
2018-09-29T00:07:51.547Z,101892.94
2018-09-29T00:10:19.034Z,101891.62
2018-09-29T00:12:46.483Z,101894.25
2018-09-29T00:15:14.055Z,101896.73
2018-09-29T00:17:41.438Z,101891.89
2018-09-29T00:20:08.954Z,101895.67
2018-09-29T00:22:36.384Z,101895.95
2018-09-29T00:25:04.183Z,101896.30
2018-09-29T00:27:31.618Z,101894.80
2018-09-29T00:29:59.059Z,101896.48
2018-09-29T00:32:26.503Z,101901.80
2018-09-29T00:34:53.986Z,101901.12
2018-09-29T00:37:21.422Z,101898.63
2018-09-29T00:39:49.360Z,101892.77
2018-09-29T00:42:16.878Z,101886.45
2018-09-29T00:44:44.354Z,101884.87
2018-09-29T00:47:11.970Z,101888.27
2018-09-29T00:49:39.426Z,101891.93
2018-09-29T00:52:06.966Z,101881.70
2018-09-29T00:54:34.374Z,101894.44
2018-09-29T00:57:01.980Z,101890.62
2018-09-29T00:59:29.464Z,101892.41
2018-09-29T01:01:56.927Z,101886.19
2018-09-29T01:04:24.452Z,101890.13
2018-09-29T01:06:51.988Z,101880.49
2018-09-29T01:09:19.450Z,101882.14
2018-09-29T01:11:46.914Z,101891.05
2018-09-29T01:14:14.399Z,101890.28
2018-09-29T01:16:41.965Z,101893.20
2018-09-29T01:19:09.410Z,101890.72
2018-09-29T01:21:37.132Z,101893.30
2018-09-29T01:24:04.549Z,101889.69
2018-09-29T01:26:32.015Z,101889.72
2018-09-29T01:28:59.415Z,101901.91
2018-09-29T01:31:26.831Z,101896.39
2018-09-29T01:33:54.240Z,101893.98
2018-09-29T01:36:21.758Z,101896.70
2018-09-29T01:38:49.133Z,101894.97
2018-09-29T01:41:16.732Z,101896.88
2018-09-29T01:43:44.247Z,101898.54
2018-09-29T01:46:11.690Z,101901.81
2018-09-29T01:48:39.181Z,101900.27
2018-09-29T01:51:06.672Z,101901.30
2018-09-29T01:53:34.190Z,101889.30
2018-09-29T01:56:01.659Z,101882.80
2018-09-29T01:58:29.306Z,101881.48
2018-09-29T02:00:56.733Z,101885.88
2018-09-29T02:03:24.146Z,101886.34
2018-09-29T02:05:51.592Z,101887.14
2018-09-29T02:08:19.018Z,101882.42
2018-09-29T02:10:46.631Z,101882.77
2018-09-29T02:13:14.133Z,101874.56
2018-09-29T02:15:41.607Z,101878.64
2018-09-29T02:18:09.037Z,101873.51
2018-09-29T02:20:36.618Z,101873.59
2018-09-29T02:23:04.188Z,101879.02
2018-09-29T02:25:31.625Z,101878.70
2018-09-29T02:27:59.096Z,101873.38
2018-09-29T02:30:26.513Z,101868.27
2018-09-29T02:32:53.965Z,101873.38
2018-09-29T02:35:21.571Z,101871.53
2018-09-29T02:37:48.953Z,101872.16
2018-09-29T02:40:16.530Z,101869.91
2018-09-29T02:42:43.918Z,101877.04
2018-09-29T02:45:11.398Z,101871.28
2018-09-29T02:47:39.234Z,101867.69
2018-09-29T02:50:06.877Z,101876.38
2018-09-29T02:52:34.390Z,101872.20
2018-09-29T02:55:01.859Z,101878.89
2018-09-29T02:57:29.298Z,101879.80
2018-09-29T02:59:56.659Z,101877.33
2018-09-29T03:02:24.094Z,101870.64
2018-09-29T03:04:51.513Z,101870.75
2018-09-29T03:07:18.975Z,101870.56
2018-09-29T03:09:46.334Z,101868.93
2018-09-29T03:12:13.685Z,101872.06
2018-09-29T03:14:41.122Z,101876.44
2018-09-29T03:17:08.526Z,101876.69
2018-09-29T03:19:36.216Z,101876.77
2018-09-29T03:22:03.781Z,101872.27
2018-09-29T03:24:31.442Z,101870.14
2018-09-29T03:26:58.898Z,101869.95
2018-09-29T03:29:26.274Z,101867.08
2018-09-29T03:31:53.759Z,101874.21
2018-09-29T03:34:21.178Z,101871.92
2018-09-29T03:36:48.586Z,101873.34
2018-09-29T03:39:16.013Z,101881.88
2018-09-29T03:41:43.491Z,101881.09
2018-09-29T03:44:10.895Z,101880.48
2018-09-29T03:46:39.118Z,101883.08
2018-09-29T03:49:06.669Z,101882.21
2018-09-29T03:51:34.182Z,101882.66
2018-09-29T03:54:01.634Z,101881.09
2018-09-29T03:56:29.129Z,101876.11
2018-09-29T03:58:56.652Z,101877.61
2018-09-29T04:01:24.579Z,101873.82
2018-09-29T04:03:52.056Z,101887.89
2018-09-29T04:06:19.567Z,101882.95
2018-09-29T04:08:47.073Z,101876.88
2018-09-29T04:11:14.763Z,101889.19
2018-09-29T04:13:42.574Z,101884.45
2018-09-29T04:16:09.998Z,101883.95
2018-09-29T04:18:37.479Z,101887.75
2018-09-29T04:21:04.978Z,101886.83
2018-09-29T04:23:32.429Z,101884.59
2018-09-29T04:25:59.934Z,101881.78
2018-09-29T04:28:27.437Z,101884.44
2018-09-29T04:30:54.932Z,101886.43
2018-09-29T04:33:22.427Z,101884.63
2018-09-29T04:35:49.876Z,101883.31
2018-09-29T04:38:17.745Z,101887.16
2018-09-29T04:40:45.176Z,101890.52
2018-09-29T04:43:12.681Z,101893.47
2018-09-29T04:45:40.169Z,101891.92
2018-09-29T04:48:07.884Z,101891.23
2018-09-29T04:50:35.345Z,101888.95
2018-09-29T04:53:03.001Z,101884.69
2018-09-29T04:55:30.745Z,101888.23
2018-09-29T04:57:58.139Z,101887.94
2018-09-29T05:00:25.677Z,101888.85
2018-09-29T05:02:53.053Z,101884.83
2018-09-29T05:05:20.607Z,101887.87
2018-09-29T05:07:48.003Z,101879.28
2018-09-29T05:10:15.477Z,101882.73
2018-09-29T05:12:43.047Z,101882.55
2018-09-29T05:15:10.531Z,101886.87
2018-09-29T05:17:38.031Z,101893.36
2018-09-29T05:20:05.722Z,101897.24
2018-09-29T05:22:33.345Z,101897.58
2018-09-29T05:25:00.853Z,101909.84
2018-09-29T05:27:28.341Z,101914.08
2018-09-29T05:29:55.792Z,101909.48
2018-09-29T05:32:23.309Z,101915.00
2018-09-29T05:34:50.706Z,101922.86
2018-09-29T05:37:18.387Z,101927.19
2018-09-29T05:39:45.809Z,101928.20
2018-09-29T05:42:13.292Z,101932.03
2018-09-29T05:44:40.729Z,101930.33
2018-09-29T05:47:08.372Z,101934.73
2018-09-29T05:49:35.802Z,101934.78
2018-09-29T05:52:03.494Z,101929.01
2018-09-29T05:54:30.988Z,101934.23
2018-09-29T05:56:58.410Z,101934.62
2018-09-29T05:59:25.839Z,101934.13
2018-09-29T06:01:53.317Z,101936.35
2018-09-29T06:04:20.767Z,101941.16
2018-09-29T06:06:48.217Z,101945.21
2018-09-29T06:09:15.605Z,101942.77
2018-09-29T06:11:42.977Z,101946.20
2018-09-29T06:14:10.418Z,101944.89
2018-09-29T06:16:37.795Z,101950.45
2018-09-29T06:19:05.278Z,101946.34
2018-09-29T06:21:33.014Z,101941.84
2018-09-29T06:24:00.411Z,101945.91
2018-09-29T06:26:27.834Z,101943.44
2018-09-29T06:28:55.505Z,101933.64
2018-09-29T06:31:23.037Z,101937.88
2018-09-29T06:33:50.433Z,101931.95
2018-09-29T06:36:17.955Z,101928.09
2018-09-29T06:38:45.488Z,101937.09
2018-09-29T06:41:12.971Z,101942.95
2018-09-29T06:43:40.425Z,101943.70
2018-09-29T06:46:08.011Z,101935.14
2018-09-29T06:48:35.410Z,101940.87
2018-09-29T06:51:02.797Z,101938.67
2018-09-29T06:53:30.214Z,101936.65
2018-09-29T06:55:57.698Z,101938.37
2018-09-29T06:58:25.113Z,101939.13
2018-09-29T07:00:52.538Z,101941.63
2018-09-29T07:03:20.002Z,101945.94
2018-09-29T07:05:47.485Z,101951.00
2018-09-29T07:08:15.075Z,101932.23
2018-09-29T07:10:42.599Z,101947.67
2018-09-29T07:13:10.127Z,101955.51
2018-09-29T07:15:37.618Z,101950.87
2018-09-29T07:18:05.063Z,101956.79
2018-09-29T07:20:32.801Z,101959.10
2018-09-29T07:23:00.322Z,101964.98
2018-09-29T07:25:27.809Z,101957.61
2018-09-29T07:27:55.217Z,101967.17
2018-09-29T07:30:22.645Z,101957.91
2018-09-29T07:32:50.245Z,101962.05
2018-09-29T07:35:17.887Z,101972.09
2018-09-29T07:37:45.439Z,101975.77
2018-09-29T07:40:13.005Z,101968.52
2018-09-29T07:42:40.527Z,101968.92
2018-09-29T07:45:08.009Z,101969.45
2018-09-29T07:47:35.508Z,101972.36
2018-09-29T07:50:03.082Z,101964.42
2018-09-29T07:52:30.503Z,101959.19
2018-09-29T07:54:58.423Z,101957.08
2018-09-29T07:57:25.821Z,101954.97
2018-09-29T07:59:53.298Z,101958.86
2018-09-29T08:02:20.674Z,101957.26
2018-09-29T08:04:48.351Z,101952.64
2018-09-29T08:07:15.928Z,101952.36
2018-09-29T08:09:43.416Z,101953.28
2018-09-29T08:12:10.906Z,101951.73
2018-09-29T08:14:38.362Z,101947.77
2018-09-29T08:17:06.067Z,101942.19
2018-09-29T08:19:33.514Z,101946.38
2018-09-29T08:22:00.914Z,101944.74
2018-09-29T08:24:28.442Z,101949.61
2018-09-29T08:26:55.782Z,101946.01
2018-09-29T08:29:23.290Z,101949.05
2018-09-29T08:31:50.920Z,101943.38
2018-09-29T08:34:18.439Z,101948.30
2018-09-29T08:36:45.962Z,101948.44
2018-09-29T08:39:13.424Z,101943.69
2018-09-29T08:41:40.866Z,101947.05
2018-09-29T08:44:08.304Z,101939.06
2018-09-29T08:46:35.775Z,101927.91
2018-09-29T08:49:03.314Z,101926.88
2018-09-29T08:51:30.752Z,101923.44
2018-09-29T08:53:58.301Z,101927.94
2018-09-29T08:56:25.787Z,101915.24
2018-09-29T08:58:53.398Z,101921.03
2018-09-29T09:01:20.890Z,101921.15
2018-09-29T09:03:48.406Z,101919.44
2018-09-29T09:06:16.098Z,101925.46
2018-09-29T09:08:43.510Z,101913.34
2018-09-29T09:11:11.010Z,101915.89
2018-09-29T09:13:38.440Z,101910.56
2018-09-29T09:16:06.114Z,101910.38
2018-09-29T09:18:33.600Z,101905.94
2018-09-29T09:21:01.138Z,101915.37
2018-09-29T09:23:28.575Z,101903.77
2018-09-29T09:25:56.087Z,101907.59
2018-09-29T09:28:23.542Z,101899.56
2018-09-29T09:30:51.196Z,101899.66
2018-09-29T09:33:18.894Z,101902.35
2018-09-29T09:35:46.333Z,101900.28
2018-09-29T09:38:13.738Z,101899.55
2018-09-29T09:40:41.669Z,101898.58
2018-09-29T09:43:09.070Z,101894.35
2018-09-29T09:45:36.748Z,101892.03
2018-09-29T09:48:04.249Z,101890.42
2018-09-29T09:50:31.674Z,101887.72
2018-09-29T09:52:59.218Z,101879.19
2018-09-29T09:55:26.690Z,101884.30
2018-09-29T09:57:54.242Z,101880.06
2018-09-29T10:00:26.283Z,101875.70
2018-09-29T10:02:59.468Z,101876.36
2018-09-29T10:05:26.907Z,101863.80
2018-09-29T10:07:54.293Z,101864.11
2018-09-29T10:10:21.894Z,101865.08
2018-09-29T10:12:49.448Z,101862.07
2018-09-29T10:15:16.934Z,101858.45
2018-09-29T10:17:44.352Z,101851.81
2018-09-29T10:20:11.816Z,101846.86
2018-09-29T10:22:39.361Z,101849.36
2018-09-29T10:25:06.931Z,101831.39
2018-09-29T10:27:34.419Z,101832.36
2018-09-29T10:30:01.946Z,101829.14
2018-09-29T10:32:29.412Z,101826.48
2018-09-29T10:34:56.837Z,101835.06
2018-09-29T10:37:24.330Z,101821.17
2018-09-29T10:39:51.701Z,101826.13
2018-09-29T10:42:19.125Z,101827.71
2018-09-29T10:44:46.511Z,101826.48
2018-09-29T10:47:14.255Z,101822.09
2018-09-29T10:49:41.666Z,101818.10
2018-09-29T10:52:09.277Z,101818.11
2018-09-29T10:54:36.802Z,101807.03
2018-09-29T10:57:04.237Z,101806.22
2018-09-29T10:59:31.709Z,101803.95
2018-09-29T11:01:59.215Z,101807.23
2018-09-29T11:04:26.643Z,101808.07
2018-09-29T11:06:54.117Z,101793.23
2018-09-29T11:09:21.679Z,101796.73
2018-09-29T11:11:49.164Z,101793.60
2018-09-29T11:14:16.599Z,101786.24
2018-09-29T11:16:44.071Z,101775.13
2018-09-29T11:19:11.560Z,101775.23
2018-09-29T11:21:39.090Z,101766.32
2018-09-29T11:24:06.649Z,101761.23
2018-09-29T11:26:34.121Z,101755.56
2018-09-29T11:29:01.557Z,101757.95
2018-09-29T11:31:29.132Z,101745.59
2018-09-29T11:33:56.625Z,101741.13
2018-09-29T11:36:24.047Z,101745.25
2018-09-29T11:38:51.603Z,101737.88
2018-09-29T11:41:19.059Z,101721.20
2018-09-29T11:43:46.760Z,101723.96
2018-09-29T11:46:14.385Z,101711.88
2018-09-29T11:48:41.841Z,101711.03
2018-09-29T11:51:09.285Z,101706.27
2018-09-29T11:53:37.047Z,101708.79
2018-09-29T11:56:04.542Z,101711.95
2018-09-29T11:58:31.962Z,101714.25
2018-09-29T12:00:59.615Z,101706.54
2018-09-29T12:03:27.025Z,101693.03
2018-09-29T12:05:54.437Z,101691.80
2018-09-29T12:08:21.923Z,101684.27
2018-09-29T12:10:49.356Z,101682.43
2018-09-29T12:13:16.840Z,101678.80
2018-09-29T12:15:44.286Z,101681.69
2018-09-29T12:18:11.667Z,101666.23
2018-09-29T12:20:39.086Z,101674.81
2018-09-29T12:23:06.563Z,101661.94
2018-09-29T12:25:33.994Z,101665.66
2018-09-29T12:28:01.454Z,101656.38
2018-09-29T12:30:29.906Z,101646.22
2018-09-29T12:32:57.338Z,101636.55
2018-09-29T12:35:24.905Z,101643.77
2018-09-29T12:37:52.626Z,101639.43
2018-09-29T12:40:20.053Z,101640.72
2018-09-29T12:42:47.463Z,101640.42
2018-09-29T12:45:14.988Z,101632.09
2018-09-29T12:47:42.382Z,101626.03
2018-09-29T12:50:09.859Z,101622.97
2018-09-29T12:52:37.468Z,101618.93
2018-09-29T12:55:04.962Z,101616.89
2018-09-29T12:57:32.416Z,101608.84
2018-09-29T12:59:59.913Z,101604.69
2018-09-29T13:02:27.304Z,101597.80
2018-09-29T13:04:54.898Z,101599.94
2018-09-29T13:07:22.406Z,101586.17
2018-09-29T13:09:49.872Z,101584.80
2018-09-29T13:12:17.415Z,101580.98
2018-09-29T13:14:44.881Z,101587.64
2018-09-29T13:17:12.244Z,101581.16
2018-09-29T13:19:39.748Z,101584.09
2018-09-29T13:22:07.705Z,101566.47
2018-09-29T13:24:35.126Z,101565.36
2018-09-29T13:27:02.598Z,101562.47
2018-09-29T13:29:30.054Z,101545.41
2018-09-29T13:31:57.558Z,101544.81
2018-09-29T13:34:24.990Z,101541.42
2018-09-29T13:36:52.898Z,101529.80
2018-09-29T13:39:20.413Z,101536.42
2018-09-29T13:41:47.823Z,101535.52
2018-09-29T13:44:15.254Z,101536.59
2018-09-29T13:46:42.735Z,101526.20
2018-09-29T13:49:10.275Z,101517.50
2018-09-29T13:51:38.125Z,101521.90
2018-09-29T13:54:05.603Z,101512.30
2018-09-29T13:56:33.081Z,101513.97
2018-09-29T13:59:00.850Z,101514.27
2018-09-29T14:01:28.309Z,101503.37
2018-09-29T14:03:55.732Z,101495.38
2018-09-29T14:06:23.319Z,101495.73
2018-09-29T14:08:50.781Z,101488.45
2018-09-29T14:11:18.252Z,101496.38
2018-09-29T14:13:45.782Z,101489.59
2018-09-29T14:16:13.227Z,101494.56
2018-09-29T14:18:40.734Z,101483.56
2018-09-29T14:21:08.224Z,101480.74
2018-09-29T14:23:35.687Z,101475.14
2018-09-29T14:26:03.701Z,101471.14
2018-09-29T14:28:31.308Z,101470.25
2018-09-29T14:30:58.745Z,101470.45
2018-09-29T14:33:26.334Z,101461.67
2018-09-29T14:35:53.844Z,101477.70
2018-09-29T14:38:21.411Z,101458.88
2018-09-29T14:40:49.137Z,101458.72
2018-09-29T14:43:16.617Z,101450.98
2018-09-29T14:45:44.062Z,101451.50
2018-09-29T14:48:11.727Z,101455.33
2018-09-29T14:50:39.302Z,101452.31
2018-09-29T14:53:06.790Z,101449.41
2018-09-29T14:55:34.401Z,101442.91
2018-09-29T14:58:02.054Z,101445.00
2018-09-29T15:00:29.410Z,101439.48
2018-09-29T15:02:56.938Z,101440.03
2018-09-29T15:05:24.600Z,101431.70
2018-09-29T15:07:52.072Z,101428.75
2018-09-29T15:10:19.705Z,101427.20
2018-09-29T15:12:47.055Z,101425.80
2018-09-29T15:15:14.500Z,101418.11
2018-09-29T15:17:41.960Z,101420.13
2018-09-29T15:20:09.610Z,101412.97
2018-09-29T15:22:37.205Z,101415.12
2018-09-29T15:25:05.044Z,101410.82
2018-09-29T15:27:32.490Z,101412.30
2018-09-29T15:29:59.941Z,101401.82
2018-09-29T15:32:27.354Z,101403.56
2018-09-29T15:34:54.832Z,101398.27
2018-09-29T15:37:22.412Z,101402.27
2018-09-29T15:39:49.987Z,101401.84
2018-09-29T15:42:17.648Z,101401.91
2018-09-29T15:44:45.182Z,101393.01
2018-09-29T15:47:12.742Z,101394.05
2018-09-29T15:49:40.239Z,101389.43
2018-09-29T15:52:07.621Z,101388.69
2018-09-29T15:54:35.047Z,101396.61
2018-09-29T15:57:02.544Z,101394.00
2018-09-29T15:59:30.136Z,101385.17
2018-09-29T16:01:57.570Z,101386.91
2018-09-29T16:04:25.018Z,101386.95
2018-09-29T16:06:52.611Z,101387.44
2018-09-29T16:09:20.073Z,101387.94
2018-09-29T16:11:47.766Z,101391.11
2018-09-29T16:14:15.286Z,101385.46
2018-09-29T16:16:42.832Z,101381.92
2018-09-29T16:19:10.321Z,101380.25
2018-09-29T16:21:37.804Z,101380.09
2018-09-29T16:24:05.719Z,101376.90
2018-09-29T16:26:33.621Z,101373.26
2018-09-29T16:29:01.395Z,101368.63
2018-09-29T16:31:29.170Z,101373.71
2018-09-29T16:33:56.727Z,101374.53
2018-09-29T16:36:24.496Z,101375.38
2018-09-29T16:38:52.502Z,101361.17
2018-09-29T16:41:20.098Z,101366.13
2018-09-29T16:43:47.565Z,101372.95
2018-09-29T16:46:15.050Z,101368.55
2018-09-29T16:48:42.594Z,101368.71
2018-09-29T16:51:10.122Z,101366.31
2018-09-29T16:53:37.794Z,101371.38
2018-09-29T16:56:05.523Z,101365.70
2018-09-29T16:58:33.002Z,101371.09
2018-09-29T17:01:00.677Z,101366.53
2018-09-29T17:03:28.241Z,101370.91
2018-09-29T17:05:55.811Z,101370.31
2018-09-29T17:08:23.303Z,101369.86
2018-09-29T17:10:50.939Z,101365.86
2018-09-29T17:13:18.371Z,101367.16
2018-09-29T17:15:45.868Z,101359.61
2018-09-29T17:18:13.650Z,101356.70
2018-09-29T17:20:41.104Z,101362.37
2018-09-29T17:23:08.490Z,101358.02
2018-09-29T17:25:36.110Z,101364.89
2018-09-29T17:28:03.574Z,101364.97
2018-09-29T17:30:31.022Z,101361.14
2018-09-29T17:32:58.488Z,101360.17
2018-09-29T17:35:25.937Z,101362.00
2018-09-29T17:37:53.396Z,101369.83
2018-09-29T17:40:21.175Z,101366.69
2018-09-29T17:42:48.742Z,101366.58
2018-09-29T17:45:16.346Z,101365.11
2018-09-29T17:47:43.772Z,101363.31
2018-09-29T17:50:11.344Z,101359.34
2018-09-29T17:52:38.834Z,101370.69
2018-09-29T17:55:06.316Z,101358.75
2018-09-29T17:57:34.230Z,101360.06
2018-09-29T18:00:01.770Z,101356.34
2018-09-29T18:02:29.355Z,101353.22
2018-09-29T18:04:56.794Z,101354.66
2018-09-29T18:07:24.400Z,101353.80
2018-09-29T18:09:52.182Z,101352.59
2018-09-29T18:12:19.657Z,101350.77
2018-09-29T18:14:47.158Z,101363.29
2018-09-29T18:17:14.795Z,101356.92
2018-09-29T18:19:42.489Z,101359.31
2018-09-29T18:22:11.360Z,101356.12
2018-09-29T18:24:39.131Z,101359.73
2018-09-29T18:27:06.776Z,101360.52
2018-09-29T18:29:34.252Z,101360.23
2018-09-29T18:32:01.729Z,101361.63
2018-09-29T18:34:29.362Z,101357.42
2018-09-29T18:36:56.936Z,101358.63
2018-09-29T18:39:24.380Z,101360.14
2018-09-29T18:41:51.950Z,101362.55
2018-09-29T18:44:19.374Z,101356.70
2018-09-29T18:46:46.903Z,101353.83
2018-09-29T18:49:14.311Z,101355.29
2018-09-29T18:51:41.980Z,101355.39
2018-09-29T18:54:09.454Z,101351.27
2018-09-29T18:56:37.216Z,101349.06
2018-09-29T18:59:04.772Z,101347.58
2018-09-29T19:01:32.274Z,101340.06
2018-09-29T19:03:59.743Z,101340.80
2018-09-29T19:06:27.222Z,101352.41
2018-09-29T19:08:55.850Z,101351.23
2018-09-29T19:11:23.284Z,101342.21
2018-09-29T19:13:50.776Z,101347.13
2018-09-29T19:16:18.324Z,101346.63
2018-09-29T19:18:45.871Z,101342.94
2018-09-29T19:21:13.362Z,101343.86
2018-09-29T19:23:40.952Z,101343.13
2018-09-29T19:26:08.862Z,101346.05
2018-09-29T19:28:36.274Z,101345.59
2018-09-29T19:31:04.201Z,101347.50
2018-09-29T19:33:31.705Z,101347.42
2018-09-29T19:35:59.266Z,101348.55
2018-09-29T19:38:26.710Z,101350.19
2018-09-29T19:40:54.211Z,101356.48
2018-09-29T19:43:21.634Z,101352.44
2018-09-29T19:45:49.119Z,101354.09
2018-09-29T19:48:16.878Z,101358.83
2018-09-29T19:50:44.331Z,101355.11
2018-09-29T19:53:12.057Z,101352.09
2018-09-29T19:55:39.522Z,101356.03
2018-09-29T19:58:07.175Z,101357.93
2018-09-29T20:00:34.899Z,101351.73
2018-09-29T20:03:02.318Z,101350.25
2018-09-29T20:05:29.905Z,101353.55
2018-09-29T20:07:57.335Z,101358.14
2018-09-29T20:10:24.774Z,101362.92
2018-09-29T20:12:52.586Z,101355.89
2018-09-29T20:15:20.058Z,101357.30
2018-09-29T20:17:47.708Z,101363.58
2018-09-29T20:20:15.135Z,101356.19
2018-09-29T20:22:42.568Z,101351.59
2018-09-29T20:25:10.256Z,101350.25
2018-09-29T20:27:38.140Z,101356.47
2018-09-29T20:30:05.746Z,101351.49
2018-09-29T20:32:33.154Z,101352.52
2018-09-29T20:35:00.624Z,101349.11
2018-09-29T20:37:28.122Z,101345.17
2018-09-29T20:39:56.193Z,101340.69
2018-09-29T20:42:23.860Z,101337.94
2018-09-29T20:44:51.823Z,101339.74
2018-09-29T20:47:19.331Z,101336.73
2018-09-29T20:49:46.791Z,101329.22
2018-09-29T20:52:14.342Z,101326.50
2018-09-29T20:54:41.725Z,101327.90
2018-09-29T20:57:11.110Z,101324.70
2018-09-29T20:59:39.353Z,101319.92
2018-09-29T21:02:07.396Z,101323.75
2018-09-29T21:04:34.818Z,101326.95
2018-09-29T21:07:02.272Z,101327.16
2018-09-29T21:09:29.703Z,101318.89
2018-09-29T21:11:57.066Z,101322.44
2018-09-29T21:14:24.658Z,101322.19
2018-09-29T21:16:52.601Z,101314.09
2018-09-29T21:19:20.137Z,101311.54
2018-09-29T21:21:48.281Z,101306.27
2018-09-29T21:24:15.689Z,101310.12
2018-09-29T21:26:43.057Z,101308.52
2018-09-29T21:29:10.638Z,101307.78
2018-09-29T21:31:38.062Z,101305.89
2018-09-29T21:34:06.310Z,101301.77
2018-09-29T21:36:34.490Z,101299.31
2018-09-29T21:39:02.043Z,101298.48
2018-09-29T21:41:29.556Z,101303.82
2018-09-29T21:43:56.993Z,101306.73
2018-09-29T21:46:24.506Z,101313.59
2018-09-29T21:48:52.142Z,101309.16
2018-09-29T21:51:19.776Z,101313.77
2018-09-29T21:53:47.273Z,101309.08
2018-09-29T21:56:15.217Z,101310.47
2018-09-29T21:58:42.790Z,101304.17
2018-09-29T22:01:15.979Z,101305.77
2018-09-29T22:03:43.724Z,101303.72
2018-09-29T22:06:11.123Z,101296.19
2018-09-29T22:08:38.553Z,101292.99
2018-09-29T22:11:06.415Z,101295.86
2018-09-29T22:13:33.912Z,101287.48
2018-09-29T22:16:01.409Z,101285.14
2018-09-29T22:18:28.872Z,101282.79
2018-09-29T22:20:56.322Z,101289.63
2018-09-29T22:23:23.790Z,101287.27
2018-09-29T22:25:51.298Z,101285.55
2018-09-29T22:28:18.691Z,101277.80
2018-09-29T22:30:46.071Z,101283.67
2018-09-29T22:33:13.674Z,101281.66
2018-09-29T22:35:41.051Z,101277.40
2018-09-29T22:38:08.447Z,101274.85
2018-09-29T22:40:35.985Z,101273.47
2018-09-29T22:43:03.452Z,101267.63
2018-09-29T22:45:31.053Z,101272.20
2018-09-29T22:47:58.637Z,101268.27
2018-09-29T22:50:26.123Z,101261.25
2018-09-29T22:52:53.542Z,101257.55
2018-09-29T22:55:21.103Z,101244.83
2018-09-29T22:57:48.707Z,101246.59
2018-09-29T23:00:16.134Z,101247.98
2018-09-29T23:02:43.713Z,101247.69
2018-09-29T23:05:11.195Z,101243.94
2018-09-29T23:07:38.628Z,101250.50
2018-09-29T23:10:06.224Z,101248.09
2018-09-29T23:12:33.675Z,101243.03
2018-09-29T23:15:01.068Z,101243.97
2018-09-29T23:17:28.539Z,101245.66
2018-09-29T23:19:55.973Z,101240.78
2018-09-29T23:22:23.407Z,101246.33
2018-09-29T23:24:50.840Z,101246.81
2018-09-29T23:27:18.275Z,101248.28
2018-09-29T23:29:45.690Z,101239.59
2018-09-29T23:32:13.215Z,101234.19
2018-09-29T23:34:40.656Z,101229.84
2018-09-29T23:37:09.155Z,101230.05
2018-09-29T23:39:36.749Z,101223.02
2018-09-29T23:42:04.186Z,101219.38
2018-09-29T23:44:31.581Z,101220.74
2018-09-29T23:46:59.115Z,101223.95
2018-09-29T23:49:26.560Z,101220.32
2018-09-29T23:51:54.039Z,101214.92
2018-09-29T23:54:21.637Z,101212.72
2018-09-29T23:56:48.996Z,101212.48
2018-09-29T23:59:16.384Z,101204.83
